sensor_id;sensor_type;location;lat;lon;timestamp;temperature;humidity
79694;DHT22;69165;52.714;13.200;2023-05-16T05:07:34;10.70;99.90
79694;DHT22;69165;52.714;13.200;2023-05-16T05:09:38;10.60;99.90
79694;DHT22;69165;52.714;13.200;2023-05-16T05:11:43;10.60;99.90
79694;DHT22;69165;52.714;13.200;2023-05-16T05:13:50;10.50;99.90
79694;DHT22;69165;52.714;13.200;2023-05-16T05:15:56;10.50;99.90
79694;DHT22;69165;52.714;13.200;2023-05-16T05:18:01;10.50;99.90
79694;DHT22;69165;52.714;13.200;2023-05-16T05:20:06;10.50;99.90
79694;DHT22;69165;52.714;13.200;2023-05-16T05:22:11;10.50;99.90
79694;DHT22;69165;52.714;13.200;2023-05-16T05:24:15;10.60;99.90
79694;DHT22;69165;52.714;13.200;2023-05-16T05:26:20;10.60;99.90
79694;DHT22;69165;52.714;13.200;2023-05-16T05:28:24;10.60;99.90
79694;DHT22;69165;52.714;13.200;2023-05-16T05:30:28;10.50;99.90
79694;DHT22;69165;52.714;13.200;2023-05-16T05:32:32;10.60;99.90
79694;DHT22;69165;52.714;13.200;2023-05-16T05:34:36;10.60;99.90
79694;DHT22;69165;52.714;13.200;2023-05-16T05:36:41;10.60;99.90
79694;DHT22;69165;52.714;13.200;2023-05-16T05:38:45;10.60;99.90
79694;DHT22;69165;52.714;13.200;2023-05-16T05:40:49;10.60;99.90
79694;DHT22;69165;52.714;13.200;2023-05-16T05:42:54;10.60;99.90
79694;DHT22;69165;52.714;13.200;2023-05-16T05:44:59;10.70;99.90
79694;DHT22;69165;52.714;13.200;2023-05-16T05:47:04;10.70;99.90
79694;DHT22;69165;52.714;13.200;2023-05-16T05:49:12;10.70;99.90
79694;DHT22;69165;52.714;13.200;2023-05-16T05:51:18;10.70;99.90
79694;DHT22;69165;52.714;13.200;2023-05-16T05:53:24;10.70;99.90
79694;DHT22;69165;52.714;13.200;2023-05-16T05:55:30;10.70;99.90
79694;DHT22;69165;52.714;13.200;2023-05-16T05:57:36;10.60;99.90
79694;DHT22;69165;52.714;13.200;2023-05-16T05:59:41;10.60;99.90
79694;DHT22;69165;52.714;13.200;2023-05-16T06:01:46;10.70;99.90
79694;DHT22;69165;52.714;13.200;2023-05-16T06:03:51;10.70;99.90
79694;DHT22;69165;52.714;13.200;2023-05-16T06:05:57;10.70;99.90
79694;DHT22;69165;52.714;13.200;2023-05-16T06:08:02;10.80;99.90
79694;DHT22;69165;52.714;13.200;2023-05-16T06:10:07;10.80;99.90
79694;DHT22;69165;52.714;13.200;2023-05-16T06:12:12;10.80;99.90
79694;DHT22;69165;52.714;13.200;2023-05-16T06:14:17;10.80;99.90
79694;DHT22;69165;52.714;13.200;2023-05-16T06:16:25;10.80;99.90
79694;DHT22;69165;52.714;13.200;2023-05-16T06:18:30;10.80;99.90
79694;DHT22;69165;52.714;13.200;2023-05-16T06:20:35;10.80;99.90
79694;DHT22;69165;52.714;13.200;2023-05-16T06:22:41;10.70;99.90
79694;DHT22;69165;52.714;13.200;2023-05-16T06:24:47;10.70;99.90
79694;DHT22;69165;52.714;13.200;2023-05-16T06:26:53;10.70;99.90
79694;DHT22;69165;52.714;13.200;2023-05-16T06:28:58;10.70;99.90
79694;DHT22;69165;52.714;13.200;2023-05-16T06:31:04;10.70;99.90
79694;DHT22;69165;52.714;13.200;2023-05-16T06:33:09;10.70;99.90
79694;DHT22;69165;52.714;13.200;2023-05-16T06:35:17;10.80;99.90
79694;DHT22;69165;52.714;13.200;2023-05-16T06:37:23;10.70;99.90
79694;DHT22;69165;52.714;13.200;2023-05-16T06:39:29;10.80;99.90
79694;DHT22;69165;52.714;13.200;2023-05-16T06:41:34;10.80;99.90
79694;DHT22;69165;52.714;13.200;2023-05-16T06:43:40;10.80;99.90
79694;DHT22;69165;52.714;13.200;2023-05-16T06:45:46;10.80;99.90
79694;DHT22;69165;52.714;13.200;2023-05-16T06:47:53;10.80;99.90
79694;DHT22;69165;52.714;13.200;2023-05-16T06:49:58;10.80;99.90
79694;DHT22;69165;52.714;13.200;2023-05-16T06:52:03;10.80;99.90
79694;DHT22;69165;52.714;13.200;2023-05-16T06:54:08;10.80;99.90
79694;DHT22;69165;52.714;13.200;2023-05-16T06:56:13;10.80;99.90
79694;DHT22;69165;52.714;13.200;2023-05-16T06:58:17;10.90;99.90
79694;DHT22;69165;52.714;13.200;2023-05-16T07:00:22;10.90;99.90
79694;DHT22;69165;52.714;13.200;2023-05-16T07:02:27;10.90;99.90
79694;DHT22;69165;52.714;13.200;2023-05-16T07:04:31;10.90;99.90
79694;DHT22;69165;52.714;13.200;2023-05-16T07:06:37;10.90;99.90
79694;DHT22;69165;52.714;13.200;2023-05-16T07:08:42;10.90;99.90
79694;DHT22;69165;52.714;13.200;2023-05-16T07:12:49;10.90;99.90
79694;DHT22;69165;52.714;13.200;2023-05-16T07:14:56;10.90;99.90
79694;DHT22;69165;52.714;13.200;2023-05-16T07:17:01;11.00;99.90
79694;DHT22;69165;52.714;13.200;2023-05-16T07:19:05;11.00;99.90
79694;DHT22;69165;52.714;13.200;2023-05-16T07:21:11;11.00;99.90
79694;DHT22;69165;52.714;13.200;2023-05-16T07:23:17;11.00;99.90
79694;DHT22;69165;52.714;13.200;2023-05-16T07:25:22;11.00;99.90
79694;DHT22;69165;52.714;13.200;2023-05-16T07:27:27;11.00;99.90
79694;DHT22;69165;52.714;13.200;2023-05-16T07:29:32;10.90;99.90
79694;DHT22;69165;52.714;13.200;2023-05-16T07:31:36;11.00;99.90
79694;DHT22;69165;52.714;13.200;2023-05-16T07:33:40;11.10;99.90
79694;DHT22;69165;52.714;13.200;2023-05-16T07:35:44;11.10;99.90
79694;DHT22;69165;52.714;13.200;2023-05-16T07:37:47;11.20;99.90
79694;DHT22;69165;52.714;13.200;2023-05-16T07:39:51;11.20;99.90
79694;DHT22;69165;52.714;13.200;2023-05-16T07:41:55;11.20;99.90
79694;DHT22;69165;52.714;13.200;2023-05-16T07:43:59;11.10;99.90
79694;DHT22;69165;52.714;13.200;2023-05-16T07:46:03;11.20;99.90
79694;DHT22;69165;52.714;13.200;2023-05-16T07:48:07;11.20;99.90
79694;DHT22;69165;52.714;13.200;2023-05-16T07:50:11;11.20;99.90
79694;DHT22;69165;52.714;13.200;2023-05-16T07:52:16;11.20;99.90
79694;DHT22;69165;52.714;13.200;2023-05-16T07:54:20;11.20;99.90
79694;DHT22;69165;52.714;13.200;2023-05-16T07:56:24;11.20;99.90
79694;DHT22;69165;52.714;13.200;2023-05-16T07:58:31;11.20;99.90
79694;DHT22;69165;52.714;13.200;2023-05-16T08:00:35;11.20;99.90
79694;DHT22;69165;52.714;13.200;2023-05-16T08:02:39;11.20;99.90
79694;DHT22;69165;52.714;13.200;2023-05-16T08:04:44;11.20;99.90
79694;DHT22;69165;52.714;13.200;2023-05-16T08:06:48;11.20;99.90
79694;DHT22;69165;52.714;13.200;2023-05-16T08:08:53;11.20;99.90
79694;DHT22;69165;52.714;13.200;2023-05-16T08:10:58;11.20;99.90
79694;DHT22;69165;52.714;13.200;2023-05-16T08:13:04;11.20;99.90
79694;DHT22;69165;52.714;13.200;2023-05-16T08:15:09;11.20;99.90
79694;DHT22;69165;52.714;13.200;2023-05-16T08:17:14;11.20;99.90
79694;DHT22;69165;52.714;13.200;2023-05-16T08:19:19;11.20;99.90
79694;DHT22;69165;52.714;13.200;2023-05-16T08:21:24;11.20;99.90
79694;DHT22;69165;52.714;13.200;2023-05-16T08:23:30;11.20;99.90
79694;DHT22;69165;52.714;13.200;2023-05-16T08:25:35;11.30;99.90
79694;DHT22;69165;52.714;13.200;2023-05-16T08:27:43;11.30;99.90
79694;DHT22;69165;52.714;13.200;2023-05-16T08:29:46;11.30;99.90
79694;DHT22;69165;52.714;13.200;2023-05-16T08:31:50;11.40;99.90
79694;DHT22;69165;52.714;13.200;2023-05-16T08:33:54;11.40;99.90
79694;DHT22;69165;52.714;13.200;2023-05-16T08:35:59;11.50;99.90
79694;DHT22;69165;52.714;13.200;2023-05-16T08:38:03;11.50;99.90
79694;DHT22;69165;52.714;13.200;2023-05-16T08:40:08;11.50;99.90
79694;DHT22;69165;52.714;13.200;2023-05-16T08:42:13;11.60;99.90
79694;DHT22;69165;52.714;13.200;2023-05-16T08:44:18;11.60;99.90
79694;DHT22;69165;52.714;13.200;2023-05-16T08:46:22;11.60;99.90
79694;DHT22;69165;52.714;13.200;2023-05-16T08:48:26;11.60;99.90
79694;DHT22;69165;52.714;13.200;2023-05-16T08:53:39;11.70;99.90
79694;DHT22;69165;52.714;13.200;2023-05-16T08:55:45;11.60;99.90
79694;DHT22;69165;52.714;13.200;2023-05-16T08:57:49;11.60;99.90
79694;DHT22;69165;52.714;13.200;2023-05-16T09:00:12;11.70;99.90
79694;DHT22;69165;52.714;13.200;2023-05-16T09:02:18;11.80;99.90
79694;DHT22;69165;52.714;13.200;2023-05-16T09:04:22;11.70;99.90
79694;DHT22;69165;52.714;13.200;2023-05-16T09:06:27;11.80;99.90
79694;DHT22;69165;52.714;13.200;2023-05-16T09:08:31;11.80;99.90
79694;DHT22;69165;52.714;13.200;2023-05-16T09:10:37;11.80;99.90
79694;DHT22;69165;52.714;13.200;2023-05-16T09:12:41;11.80;99.90
79694;DHT22;69165;52.714;13.200;2023-05-16T09:14:44;11.80;99.90
79694;DHT22;69165;52.714;13.200;2023-05-16T09:17:04;11.80;99.90
79694;DHT22;69165;52.714;13.200;2023-05-16T09:19:10;11.80;99.90
79694;DHT22;69165;52.714;13.200;2023-05-16T09:21:13;11.80;99.90
79694;DHT22;69165;52.714;13.200;2023-05-16T09:23:16;11.80;99.90
79694;DHT22;69165;52.714;13.200;2023-05-16T09:25:21;11.80;99.90
79694;DHT22;69165;52.714;13.200;2023-05-16T09:27:25;11.80;99.90
79694;DHT22;69165;52.714;13.200;2023-05-16T09:31:23;11.80;99.90
79694;DHT22;69165;52.714;13.200;2023-05-16T09:33:29;11.80;99.90
79694;DHT22;69165;52.714;13.200;2023-05-16T09:35:32;11.80;99.90
79694;DHT22;69165;52.714;13.200;2023-05-16T09:37:36;11.90;99.90
79694;DHT22;69165;52.714;13.200;2023-05-16T09:39:46;11.90;99.90
79694;DHT22;69165;52.714;13.200;2023-05-16T09:41:50;11.90;99.90
79694;DHT22;69165;52.714;13.200;2023-05-16T09:43:54;12.00;99.90
79694;DHT22;69165;52.714;13.200;2023-05-16T09:45:59;12.00;99.90
79694;DHT22;69165;52.714;13.200;2023-05-16T09:48:06;12.00;99.90
79694;DHT22;69165;52.714;13.200;2023-05-16T09:50:12;12.00;99.90
79694;DHT22;69165;52.714;13.200;2023-05-16T09:52:15;12.00;99.90
79694;DHT22;69165;52.714;13.200;2023-05-16T09:54:34;11.90;99.90
79694;DHT22;69165;52.714;13.200;2023-05-16T09:56:47;11.80;99.90
79694;DHT22;69165;52.714;13.200;2023-05-16T09:59:35;11.80;99.90
79694;DHT22;69165;52.714;13.200;2023-05-16T10:01:41;11.70;99.90
79694;DHT22;69165;52.714;13.200;2023-05-16T10:03:46;11.60;99.90
79694;DHT22;69165;52.714;13.200;2023-05-16T10:05:50;11.60;99.90
79694;DHT22;69165;52.714;13.200;2023-05-16T10:07:55;11.60;99.90
79694;DHT22;69165;52.714;13.200;2023-05-16T10:10:04;11.60;99.90
79694;DHT22;69165;52.714;13.200;2023-05-16T10:12:13;11.50;99.90
79694;DHT22;69165;52.714;13.200;2023-05-16T10:14:19;11.50;99.90
79694;DHT22;69165;52.714;13.200;2023-05-16T10:16:24;11.50;99.90
79694;DHT22;69165;52.714;13.200;2023-05-16T10:18:30;11.50;99.90
79694;DHT22;69165;52.714;13.200;2023-05-16T10:20:34;11.50;99.90
79694;DHT22;69165;52.714;13.200;2023-05-16T10:22:41;11.60;99.90
79694;DHT22;69165;52.714;13.200;2023-05-16T10:24:45;11.70;99.90
79694;DHT22;69165;52.714;13.200;2023-05-16T10:26:47;11.70;99.90
79694;DHT22;69165;52.714;13.200;2023-05-16T10:28:52;11.70;99.90
79694;DHT22;69165;52.714;13.200;2023-05-16T10:30:56;11.80;99.90
79694;DHT22;69165;52.714;13.200;2023-05-16T10:33:00;11.80;99.90
79694;DHT22;69165;52.714;13.200;2023-05-16T10:35:05;11.80;99.90
79694;DHT22;69165;52.714;13.200;2023-05-16T10:37:09;11.90;99.90
79694;DHT22;69165;52.714;13.200;2023-05-16T10:39:13;11.90;99.90
79694;DHT22;69165;52.714;13.200;2023-05-16T10:41:17;12.10;99.90
79694;DHT22;69165;52.714;13.200;2023-05-16T10:43:24;12.00;99.90
79694;DHT22;69165;52.714;13.200;2023-05-16T10:45:29;12.10;99.90
79694;DHT22;69165;52.714;13.200;2023-05-16T10:47:33;12.10;99.90
79694;DHT22;69165;52.714;13.200;2023-05-16T10:49:41;12.10;99.90
79694;DHT22;69165;52.714;13.200;2023-05-16T10:51:48;12.10;
79694;DHT22;69165;52.714;13.200;2023-05-16T10:53:53;12.10;99.90
79694;DHT22;69165;52.714;13.200;2023-05-16T10:56:12;12.00;99.90
79694;DHT22;69165;52.714;13.200;2023-05-16T11:00:35;12.10;99.90
79694;DHT22;69165;52.714;13.200;2023-05-16T11:02:41;12.10;99.90
79694;DHT22;69165;52.714;13.200;2023-05-16T11:04:48;12.10;99.90
79694;DHT22;69165;52.714;13.200;2023-05-16T11:06:52;12.00;99.90
79694;DHT22;69165;52.714;13.200;2023-05-16T11:09:22;12.10;99.90
79694;DHT22;69165;52.714;13.200;2023-05-16T11:11:43;12.30;99.90
79694;DHT22;69165;52.714;13.200;2023-05-16T11:13:55;12.20;99.90
79694;DHT22;69165;52.714;13.200;2023-05-16T11:18:15;12.40;99.90
79694;DHT22;69165;52.714;13.200;2023-05-16T11:20:26;12.40;99.90
79694;DHT22;69165;52.714;13.200;2023-05-16T11:22:31;12.40;99.90
79694;DHT22;69165;52.714;13.200;2023-05-16T11:24:37;12.40;99.90
79694;DHT22;69165;52.714;13.200;2023-05-16T11:26:42;12.40;99.90
79694;DHT22;69165;52.714;13.200;2023-05-16T11:28:47;12.40;99.90
79694;DHT22;69165;52.714;13.200;2023-05-16T11:30:49;12.50;99.90
79694;DHT22;69165;52.714;13.200;2023-05-16T11:32:52;12.80;99.90
79694;DHT22;69165;52.714;13.200;2023-05-16T11:34:54;13.00;99.90
79694;DHT22;69165;52.714;13.200;2023-05-16T11:36:56;13.30;99.90
79694;DHT22;69165;52.714;13.200;2023-05-16T11:39:04;13.60;99.90
79694;DHT22;69165;52.714;13.200;2023-05-16T11:41:03;13.80;99.90
79694;DHT22;69165;52.714;13.200;2023-05-16T11:43:05;13.90;99.90
79694;DHT22;69165;52.714;13.200;2023-05-16T11:45:10;13.90;99.90
79694;DHT22;69165;52.714;13.200;2023-05-16T11:47:11;14.00;99.90
79694;DHT22;69165;52.714;13.200;2023-05-16T11:49:12;13.90;99.90
79694;DHT22;69165;52.714;13.200;2023-05-16T11:51:16;13.80;99.90
79694;DHT22;69165;52.714;13.200;2023-05-16T11:53:16;13.80;99.90
79694;DHT22;69165;52.714;13.200;2023-05-16T11:55:19;13.80;99.90
79694;DHT22;69165;52.714;13.200;2023-05-16T11:57:20;13.70;99.90
79694;DHT22;69165;52.714;13.200;2023-05-16T11:59:22;13.70;99.90
79694;DHT22;69165;52.714;13.200;2023-05-16T12:01:23;13.70;99.90
79694;DHT22;69165;52.714;13.200;2023-05-16T12:03:25;13.70;99.90
79694;DHT22;69165;52.714;13.200;2023-05-16T12:05:27;13.70;99.90
79694;DHT22;69165;52.714;13.200;2023-05-16T12:07:29;14.20;99.90
79694;DHT22;69165;52.714;13.200;2023-05-16T12:09:31;14.20;99.90
79694;DHT22;69165;52.714;13.200;2023-05-16T12:11:32;14.50;99.90
79694;DHT22;69165;52.714;13.200;2023-05-16T12:13:34;14.90;99.90
79694;DHT22;69165;52.714;13.200;2023-05-16T12:15:36;15.10;99.90
79694;DHT22;69165;52.714;13.200;2023-05-16T12:17:38;15.00;99.90
79694;DHT22;69165;52.714;13.200;2023-05-16T12:19:39;14.80;99.90
79694;DHT22;69165;52.714;13.200;2023-05-16T12:21:41;14.40;99.90
79694;DHT22;69165;52.714;13.200;2023-05-16T12:23:44;14.40;99.90
79694;DHT22;69165;52.714;13.200;2023-05-16T12:25:46;14.30;99.90
79694;DHT22;69165;52.714;13.200;2023-05-16T12:27:47;14.40;99.90
79694;DHT22;69165;52.714;13.200;2023-05-16T12:29:49;14.50;99.90
79694;DHT22;69165;52.714;13.200;2023-05-16T12:31:51;14.70;99.90
79694;DHT22;69165;52.714;13.200;2023-05-16T12:33:52;14.90;99.90
79694;DHT22;69165;52.714;13.200;2023-05-16T12:35:54;15.10;99.90
79694;DHT22;69165;52.714;13.200;2023-05-16T12:37:55;15.30;99.90
79694;DHT22;69165;52.714;13.200;2023-05-16T12:39:59;15.50;99.90
79694;DHT22;69165;52.714;13.200;2023-05-16T12:42:03;15.70;99.90
79694;DHT22;69165;52.714;13.200;2023-05-16T12:44:09;15.90;99.30
79694;DHT22;69165;52.714;13.200;2023-05-16T12:46:08;16.00;98.00
79694;DHT22;69165;52.714;13.200;2023-05-16T12:48:11;16.00;98.00
79694;DHT22;69165;52.714;13.200;2023-05-16T12:50:13;16.10;97.40
79694;DHT22;69165;52.714;13.200;2023-05-16T12:52:17;16.10;97.40
79694;DHT22;69165;52.714;13.200;2023-05-16T12:54:18;16.10;97.10
79694;DHT22;69165;52.714;13.200;2023-05-16T12:56:20;15.90;95.90
79694;DHT22;69165;52.714;13.200;2023-05-16T12:58:23;15.60;95.90
79694;DHT22;69165;52.714;13.200;2023-05-16T13:00:25;15.40;96.40
79694;DHT22;69165;52.714;13.200;2023-05-16T13:02:27;15.30;95.90
79694;DHT22;69165;52.714;13.200;2023-05-16T13:06:18;15.20;97.20
79694;DHT22;69165;52.714;13.200;2023-05-16T13:08:21;15.00;95.80
79694;DHT22;69165;52.714;13.200;2023-05-16T13:10:22;15.00;95.80
79694;DHT22;69165;52.714;13.200;2023-05-16T13:14:16;14.90;95.90
79694;DHT22;69165;52.714;13.200;2023-05-16T13:16:18;14.90;95.80
79694;DHT22;69165;52.714;13.200;2023-05-16T13:18:19;15.00;95.80
79694;DHT22;69165;52.714;13.200;2023-05-16T13:20:21;15.10;95.20
79694;DHT22;69165;52.714;13.200;2023-05-16T13:22:23;15.30;95.30
79694;DHT22;69165;52.714;13.200;2023-05-16T13:24:25;15.40;94.90
79694;DHT22;69165;52.714;13.200;2023-05-16T13:26:27;15.40;94.90
79694;DHT22;69165;52.714;13.200;2023-05-16T13:28:28;15.50;95.70
79694;DHT22;69165;52.714;13.200;2023-05-16T13:30:30;15.70;95.70
79694;DHT22;69165;52.714;13.200;2023-05-16T13:32:31;15.80;94.20
79694;DHT22;69165;52.714;13.200;2023-05-16T13:34:33;15.80;93.70
79694;DHT22;69165;52.714;13.200;2023-05-16T13:36:35;15.70;94.10
79694;DHT22;69165;52.714;13.200;2023-05-16T13:38:37;15.60;95.20
79694;DHT22;69165;52.714;13.200;2023-05-16T13:40:38;15.60;95.20
79694;DHT22;69165;52.714;13.200;2023-05-16T13:42:40;15.60;94.90
79694;DHT22;69165;52.714;13.200;2023-05-16T13:44:41;15.70;95.20
79694;DHT22;69165;52.714;13.200;2023-05-16T13:46:43;15.80;93.60
79694;DHT22;69165;52.714;13.200;2023-05-16T13:48:45;15.90;93.30
79694;DHT22;69165;52.714;13.200;2023-05-16T13:50:46;16.00;92.40
79694;DHT22;69165;52.714;13.200;2023-05-16T13:52:49;16.10;91.50
79694;DHT22;69165;52.714;13.200;2023-05-16T13:54:50;16.10;91.50
79694;DHT22;69165;52.714;13.200;2023-05-16T13:56:52;16.00;92.00
79694;DHT22;69165;52.714;13.200;2023-05-16T13:58:54;16.00;92.80
79694;DHT22;69165;52.714;13.200;2023-05-16T14:00:56;16.00;92.80
79694;DHT22;69165;52.714;13.200;2023-05-16T14:02:57;16.00;92.70
79694;DHT22;69165;52.714;13.200;2023-05-16T14:04:59;16.00;92.00
79694;DHT22;69165;52.714;13.200;2023-05-16T14:07:01;16.00;92.10
79694;DHT22;69165;52.714;13.200;2023-05-16T14:09:03;15.80;91.20
79694;DHT22;69165;52.714;13.200;2023-05-16T14:11:05;15.60;90.80
79694;DHT22;69165;52.714;13.200;2023-05-16T14:13:07;15.60;90.80
79694;DHT22;69165;52.714;13.200;2023-05-16T14:15:09;15.50;91.20
79694;DHT22;69165;52.714;13.200;2023-05-16T14:17:11;15.30;91.90
79694;DHT22;69165;52.714;13.200;2023-05-16T14:19:13;15.30;91.90
79694;DHT22;69165;52.714;13.200;2023-05-16T14:21:15;15.30;92.10
79694;DHT22;69165;52.714;13.200;2023-05-16T14:23:17;15.30;91.80
79694;DHT22;69165;52.714;13.200;2023-05-16T14:25:18;15.30;90.70
79694;DHT22;69165;52.714;13.200;2023-05-16T14:27:20;15.20;91.10
79694;DHT22;69165;52.714;13.200;2023-05-16T14:29:21;15.30;90.70
79694;DHT22;69165;52.714;13.200;2023-05-16T14:31:24;15.20;88.70
79694;DHT22;69165;52.714;13.200;2023-05-16T14:33:26;15.20;89.10
79694;DHT22;69165;52.714;13.200;2023-05-16T14:35:28;15.20;89.10
79694;DHT22;69165;52.714;13.200;2023-05-16T14:37:29;15.30;90.00
79694;DHT22;69165;52.714;13.200;2023-05-16T14:39:31;15.50;89.60
79694;DHT22;69165;52.714;13.200;2023-05-16T14:41:33;15.70;91.10
79694;DHT22;69165;52.714;13.200;2023-05-16T14:43:34;16.00;87.90
79694;DHT22;69165;52.714;13.200;2023-05-16T14:45:36;16.00;88.00
79694;DHT22;69165;52.714;13.200;2023-05-16T14:47:37;16.00;87.20
79694;DHT22;69165;52.714;13.200;2023-05-16T14:49:39;16.00;87.70
79694;DHT22;69165;52.714;13.200;2023-05-16T14:51:41;16.00;85.80
79694;DHT22;69165;52.714;13.200;2023-05-16T14:53:42;16.00;86.50
79694;DHT22;69165;52.714;13.200;2023-05-16T14:55:44;16.00;86.60
79694;DHT22;69165;52.714;13.200;2023-05-16T14:57:46;16.00;86.30
79694;DHT22;69165;52.714;13.200;2023-05-16T14:59:48;16.00;86.40
79694;DHT22;69165;52.714;13.200;2023-05-16T15:01:50;16.10;84.70
79694;DHT22;69165;52.714;13.200;2023-05-16T15:03:52;16.10;83.50
79694;DHT22;69165;52.714;13.200;2023-05-16T15:05:54;16.00;83.60
79694;DHT22;69165;52.714;13.200;2023-05-16T15:07:56;16.00;83.60
79694;DHT22;69165;52.714;13.200;2023-05-16T15:09:58;15.90;84.90
79694;DHT22;69165;52.714;13.200;2023-05-16T15:11:59;16.00;86.90
79694;DHT22;69165;52.714;13.200;2023-05-16T15:14:01;16.10;87.10
79694;DHT22;69165;52.714;13.200;2023-05-16T15:16:03;16.20;86.40
79694;DHT22;69165;52.714;13.200;2023-05-16T15:18:05;16.40;82.50
79694;DHT22;69165;52.714;13.200;2023-05-16T15:20:08;16.40;82.80
79694;DHT22;69165;52.714;13.200;2023-05-16T15:22:10;16.40;82.80
79694;DHT22;69165;52.714;13.200;2023-05-16T15:24:11;16.30;82.60
79694;DHT22;69165;52.714;13.200;2023-05-16T15:26:13;16.30;82.80
79694;DHT22;69165;52.714;13.200;2023-05-16T15:28:15;16.10;81.30
79694;DHT22;69165;52.714;13.200;2023-05-16T15:30:17;16.10;81.20
79694;DHT22;69165;52.714;13.200;2023-05-16T15:32:19;16.00;82.40
79694;DHT22;69165;52.714;13.200;2023-05-16T15:34:20;16.00;82.40
79694;DHT22;69165;52.714;13.200;2023-05-16T15:36:22;16.10;83.00
79694;DHT22;69165;52.714;13.200;2023-05-16T15:38:23;16.10;85.40
79694;DHT22;69165;52.714;13.200;2023-05-16T15:40:25;16.00;81.90
79694;DHT22;69165;52.714;13.200;2023-05-16T15:42:27;15.90;82.20
79694;DHT22;69165;52.714;13.200;2023-05-16T15:44:28;15.80;83.50
79694;DHT22;69165;52.714;13.200;2023-05-16T15:46:30;15.80;84.30
79694;DHT22;69165;52.714;13.200;2023-05-16T15:48:32;15.90;81.00
79694;DHT22;69165;52.714;13.200;2023-05-16T15:50:35;15.90;81.90
79694;DHT22;69165;52.714;13.200;2023-05-16T15:52:36;15.90;81.90
79694;DHT22;69165;52.714;13.200;2023-05-16T15:54:38;15.80;80.80
79694;DHT22;69165;52.714;13.200;2023-05-16T15:56:39;15.60;80.60
79694;DHT22;69165;52.714;13.200;2023-05-16T15:58:41;15.60;81.30
79694;DHT22;69165;52.714;13.200;2023-05-16T16:00:43;15.60;81.30
79694;DHT22;69165;52.714;13.200;2023-05-16T16:02:44;15.70;81.80
79694;DHT22;69165;52.714;13.200;2023-05-16T16:04:46;15.80;82.30
79694;DHT22;69165;52.714;13.200;2023-05-16T16:06:48;15.70;82.20
79694;DHT22;69165;52.714;13.200;2023-05-16T16:08:50;15.80;81.40
79694;DHT22;69165;52.714;13.200;2023-05-16T16:10:51;15.90;82.00
79694;DHT22;69165;52.714;13.200;2023-05-16T16:12:59;15.90;82.10
79694;DHT22;69165;52.714;13.200;2023-05-16T16:15:02;16.00;79.40
79694;DHT22;69165;52.714;13.200;2023-05-16T16:17:03;16.00;79.30
79694;DHT22;69165;52.714;13.200;2023-05-16T16:19:05;16.00;74.60
79694;DHT22;69165;52.714;13.200;2023-05-16T16:21:06;15.90;74.90
79694;DHT22;69165;52.714;13.200;2023-05-16T16:23:08;15.80;77.20
79694;DHT22;69165;52.714;13.200;2023-05-16T16:25:10;15.70;77.00
79694;DHT22;69165;52.714;13.200;2023-05-16T16:27:11;15.70;78.80
79694;DHT22;69165;52.714;13.200;2023-05-16T16:29:13;15.70;78.00
79694;DHT22;69165;52.714;13.200;2023-05-16T16:31:15;15.70;77.90
79694;DHT22;69165;52.714;13.200;2023-05-16T16:33:16;15.80;77.30
79694;DHT22;69165;52.714;13.200;2023-05-16T16:35:18;15.80;78.40
79694;DHT22;69165;52.714;13.200;2023-05-16T16:37:20;16.00;79.40
79694;DHT22;69165;52.714;13.200;2023-05-16T16:39:22;15.90;79.30
79694;DHT22;69165;52.714;13.200;2023-05-16T16:41:23;16.00;78.00
79694;DHT22;69165;52.714;13.200;2023-05-16T16:43:25;16.10;78.10
79694;DHT22;69165;52.714;13.200;2023-05-16T16:45:27;16.00;77.60
79694;DHT22;69165;52.714;13.200;2023-05-16T16:47:28;16.00;78.40
79694;DHT22;69165;52.714;13.200;2023-05-16T16:49:30;16.00;80.30
79694;DHT22;69165;52.714;13.200;2023-05-16T16:51:31;16.10;79.60
79694;DHT22;69165;52.714;13.200;2023-05-16T16:53:33;16.00;78.40
79694;DHT22;69165;52.714;13.200;2023-05-16T16:55:34;15.90;79.70
79694;DHT22;69165;52.714;13.200;2023-05-16T16:57:37;15.80;80.90
79694;DHT22;69165;52.714;13.200;2023-05-16T16:59:39;15.70;81.30
79694;DHT22;69165;52.714;13.200;2023-05-16T17:01:41;15.70;81.20
79694;DHT22;69165;52.714;13.200;2023-05-16T17:03:43;15.60;79.10
79694;DHT22;69165;52.714;13.200;2023-05-16T17:05:45;15.50;78.90
79694;DHT22;69165;52.714;13.200;2023-05-16T17:07:48;15.40;80.50
79694;DHT22;69165;52.714;13.200;2023-05-16T17:09:49;15.40;80.60
79694;DHT22;69165;52.714;13.200;2023-05-16T17:11:51;15.40;81.80
79694;DHT22;69165;52.714;13.200;2023-05-16T17:13:53;15.40;81.10
79694;DHT22;69165;52.714;13.200;2023-05-16T17:15:54;15.40;81.60
79694;DHT22;69165;52.714;13.200;2023-05-16T17:17:55;15.30;81.90
79694;DHT22;69165;52.714;13.200;2023-05-16T17:19:58;15.10;82.20
79694;DHT22;69165;52.714;13.200;2023-05-16T17:22:00;15.00;82.80
79694;DHT22;69165;52.714;13.200;2023-05-16T17:24:03;15.00;81.80
79694;DHT22;69165;52.714;13.200;2023-05-16T17:26:04;15.00;81.90
79694;DHT22;69165;52.714;13.200;2023-05-16T17:28:06;14.90;82.20
79694;DHT22;69165;52.714;13.200;2023-05-16T17:30:08;14.80;82.50
79694;DHT22;69165;52.714;13.200;2023-05-16T17:32:09;14.80;83.10
79694;DHT22;69165;52.714;13.200;2023-05-16T17:34:11;14.70;82.60
79694;DHT22;69165;52.714;13.200;2023-05-16T17:36:13;14.70;82.70
79694;DHT22;69165;52.714;13.200;2023-05-16T17:38:15;14.50;82.70
79694;DHT22;69165;52.714;13.200;2023-05-16T17:40:17;14.50;82.60
79694;DHT22;69165;52.714;13.200;2023-05-16T17:42:18;14.50;83.50
79694;DHT22;69165;52.714;13.200;2023-05-16T17:44:20;14.50;83.70
79694;DHT22;69165;52.714;13.200;2023-05-16T17:46:21;14.50;83.60
79694;DHT22;69165;52.714;13.200;2023-05-16T17:48:23;14.40;84.20
79694;DHT22;69165;52.714;13.200;2023-05-16T17:50:25;14.40;84.20
79694;DHT22;69165;52.714;13.200;2023-05-16T17:52:27;14.20;84.70
79694;DHT22;69165;52.714;13.200;2023-05-16T17:54:29;14.20;84.90
79694;DHT22;69165;52.714;13.200;2023-05-16T17:56:31;14.20;84.90
79694;DHT22;69165;52.714;13.200;2023-05-16T17:58:33;14.20;86.00
79694;DHT22;69165;52.714;13.200;2023-05-16T18:00:35;14.10;86.00
79694;DHT22;69165;52.714;13.200;2023-05-16T18:02:37;14.10;86.10
79694;DHT22;69165;52.714;13.200;2023-05-16T18:04:38;14.00;86.30
79694;DHT22;69165;52.714;13.200;2023-05-16T18:06:40;14.00;86.40
79694;DHT22;69165;52.714;13.200;2023-05-16T18:08:41;13.90;86.80
79694;DHT22;69165;52.714;13.200;2023-05-16T18:12:34;13.80;87.50